Time;durP1;ratioP1;P1;durP2;ratioP2;P2;SDS_P1;SDS_P2;PMS_P1;PMS_P2;Temp;Humidity;BMP_temperature;BMP_pressure;BME280_temperature;BME280_humidity;BME280_pressure;Samples;Min_cycle;Max_cycle;Signal;HPM_P1;HPM_P2
2022/03/08 00:01:21;;;;;;;18.13;9.38;;;;;;;;;;5074524;28;20067;-81
2022/03/08 00:03:47;;;;;;;18.98;9.15;;;;;;;;;;5072887;28;20041;-80
2022/03/08 00:06:13;;;;;;;15.35;8.77;;;;;;;;;;5073236;28;20048;-78
2022/03/08 00:08:40;;;;;;;17.67;8.57;;;;;;;;;;5056211;28;20434;-80
2022/03/08 00:11:06;;;;;;;13.93;8.30;;;;;;;;;;5056483;28;20394;-79
2022/03/08 00:13:32;;;;;;;17.27;8.80;;;;;;;;;;5072959;28;20052;-80
2022/03/08 00:15:58;;;;;;;14.00;8.85;;;;;;;;;;5055663;28;20051;-80
2022/03/08 00:18:24;;;;;;;15.20;9.07;;;;;;;;;;5073151;28;20041;-79
2022/03/08 00:20:50;;;;;;;17.80;9.25;;;;;;;;;;5074789;28;20063;-78
2022/03/08 00:23:16;;;;;;;16.50;9.15;;;;;;;;;;5073589;28;20037;-79
2022/03/08 00:25:43;;;;;;;19.38;9.70;;;;;;;;;;5074131;28;20095;-81
2022/03/08 00:28:09;;;;;;;16.92;9.80;;;;;;;;;;5072531;28;20040;-80
2022/03/08 00:30:35;;;;;;;18.90;9.60;;;;;;;;;;5072554;28;20433;-81
2022/03/08 00:33:01;;;;;;;15.90;9.40;;;;;;;;;;5056194;28;20368;-81
2022/03/08 00:35:27;;;;;;;17.73;9.45;;;;;;;;;;5055660;28;20048;-81
2022/03/08 00:37:53;;;;;;;21.25;10.25;;;;;;;;;;5072694;28;20032;-82
2022/03/08 00:40:20;;;;;;;18.10;9.50;;;;;;;;;;5072597;28;20052;-80
2022/03/08 00:42:46;;;;;;;19.40;10.10;;;;;;;;;;5071900;28;20037;-78
2022/03/08 00:45:12;;;;;;;20.13;9.85;;;;;;;;;;5072749;28;20048;-81
2022/03/08 00:47:39;;;;;;;19.38;9.70;;;;;;;;;;5056569;28;20092;-79
2022/03/08 00:50:06;;;;;;;18.02;9.30;;;;;;;;;;5072603;28;20060;-79
2022/03/08 00:52:32;;;;;;;17.90;9.10;;;;;;;;;;5072463;28;20076;-80
2022/03/08 00:54:58;;;;;;;17.55;8.63;;;;;;;;;;5073342;28;20036;-80
2022/03/08 00:57:24;;;;;;;16.92;8.90;;;;;;;;;;5070776;28;20052;-82
2022/03/08 00:59:50;;;;;;;19.10;9.15;;;;;;;;;;5054900;28;20041;-80
2022/03/08 01:02:16;;;;;;;16.63;9.35;;;;;;;;;;5071382;28;20547;-79
2022/03/08 01:04:42;;;;;;;19.58;10.02;;;;;;;;;;5071684;28;20029;-79
2022/03/08 01:07:08;;;;;;;19.65;8.93;;;;;;;;;;5054072;28;20418;-79
2022/03/08 01:09:34;;;;;;;15.82;8.63;;;;;;;;;;5070954;28;20079;-81
2022/03/08 01:12:00;;;;;;;12.57;8.05;;;;;;;;;;5069804;28;20051;-80
2022/03/08 01:14:26;;;;;;;16.20;8.50;;;;;;;;;;5072699;28;20041;-79
2022/03/08 01:16:52;;;;;;;15.90;8.90;;;;;;;;;;5072334;28;20033;-80
2022/03/08 01:19:18;;;;;;;17.13;9.15;;;;;;;;;;5070981;28;20051;-79
2022/03/08 01:21:44;;;;;;;15.27;9.35;;;;;;;;;;5071421;28;20041;-79
2022/03/08 01:24:10;;;;;;;14.77;9.43;;;;;;;;;;5072874;28;20037;-82
2022/03/08 01:26:36;;;;;;;17.88;9.50;;;;;;;;;;5054874;28;20093;-79
2022/03/08 01:29:03;;;;;;;19.70;9.88;;;;;;;;;;5072320;28;20041;-80
2022/03/08 01:31:29;;;;;;;17.45;9.90;;;;;;;;;;5070092;28;20041;-79
2022/03/08 01:33:55;;;;;;;16.55;10.25;;;;;;;;;;5072214;28;20056;-81
2022/03/08 01:36:21;;;;;;;20.52;10.93;;;;;;;;;;5070878;28;20052;-80
2022/03/08 01:38:48;;;;;;;18.80;10.68;;;;;;;;;;5053914;28;20040;-80
2022/03/08 01:41:14;;;;;;;20.70;10.90;;;;;;;;;;5071800;28;20044;-80
2022/03/08 01:43:40;;;;;;;18.00;10.00;;;;;;;;;;5071283;28;20067;-81
2022/03/08 01:46:06;;;;;;;19.08;10.13;;;;;;;;;;5054732;28;20041;-81
2022/03/08 01:48:32;;;;;;;20.58;10.57;;;;;;;;;;5071140;28;20037;-81
2022/03/08 01:50:58;;;;;;;19.65;10.15;;;;;;;;;;5072041;28;20040;-80
2022/03/08 01:53:24;;;;;;;16.92;10.32;;;;;;;;;;5052817;28;20398;-79
2022/03/08 01:55:50;;;;;;;17.67;9.93;;;;;;;;;;5053341;28;20068;-81
2022/03/08 01:58:16;;;;;;;20.23;10.48;;;;;;;;;;5070207;28;20045;-81
2022/03/08 02:00:42;;;;;;;19.38;10.60;;;;;;;;;;5067610;28;20037;-80
2022/03/08 02:03:08;;;;;;;17.35;9.93;;;;;;;;;;5052626;28;20090;-81
2022/03/08 02:05:34;;;;;;;23.70;10.90;;;;;;;;;;5067740;28;20041;-80
2022/03/08 02:08:00;;;;;;;17.05;10.50;;;;;;;;;;5052324;28;20037;-82
2022/03/08 02:10:26;;;;;;;22.40;10.73;;;;;;;;;;5054219;28;20040;-80
2022/03/08 02:12:52;;;;;;;18.02;10.30;;;;;;;;;;5069529;28;20036;-80
2022/03/08 02:15:20;;;;;;;20.13;11.10;;;;;;;;;;5069552;28;20036;-81
2022/03/08 02:17:47;;;;;;;21.58;10.65;;;;;;;;;;5069176;28;20051;-80
2022/03/08 02:20:13;;;;;;;18.80;11.15;;;;;;;;;;5066597;28;20084;-81
2022/03/08 02:22:40;;;;;;;18.50;10.98;;;;;;;;;;5046987;28;20467;-82
2022/03/08 02:25:06;;;;;;;20.88;11.65;;;;;;;;;;5061490;28;20036;-82
2022/03/08 02:27:32;;;;;;;21.10;11.55;;;;;;;;;;5061054;28;20060;-80
2022/03/08 02:29:58;;;;;;;18.75;11.75;;;;;;;;;;5044164;28;20049;-81
2022/03/08 02:32:24;;;;;;;23.25;11.10;;;;;;;;;;5061473;28;20051;-82
2022/03/08 02:34:50;;;;;;;20.10;11.18;;;;;;;;;;5045140;28;20037;-81
2022/03/08 02:37:16;;;;;;;20.08;11.23;;;;;;;;;;5061193;28;20041;-82
2022/03/08 02:39:44;;;;;;;21.02;10.80;;;;;;;;;;5060905;28;20411;-81
2022/03/08 02:42:10;;;;;;;21.08;11.18;;;;;;;;;;5063654;28;20060;-82
2022/03/08 02:44:36;;;;;;;17.50;10.75;;;;;;;;;;5061906;28;20392;-80
2022/03/08 02:47:03;;;;;;;20.48;11.13;;;;;;;;;;5044617;28;20147;-80
2022/03/08 02:49:29;;;;;;;22.00;11.75;;;;;;;;;;5044178;28;20056;-81
2022/03/08 02:51:56;;;;;;;19.63;11.02;;;;;;;;;;5063168;28;20364;-80
2022/03/08 02:54:22;;;;;;;19.92;11.25;;;;;;;;;;5044776;28;20414;-80
2022/03/08 02:56:48;;;;;;;20.77;11.82;;;;;;;;;;5060705;28;20114;-80
2022/03/08 02:59:20;;;;;;;20.88;11.82;;;;;;;;;;5069781;28;20041;-78
2022/03/08 03:01:46;;;;;;;18.83;11.50;;;;;;;;;;5061309;28;20033;-77
2022/03/08 03:04:12;;;;;;;23.90;11.80;;;;;;;;;;5073728;28;20045;-81
2022/03/08 03:06:39;;;;;;;21.70;11.68;;;;;;;;;;5062544;28;20047;-81
2022/03/08 03:09:05;;;;;;;21.13;12.05;;;;;;;;;;5062037;28;20040;-81
2022/03/08 03:11:31;;;;;;;20.85;12.00;;;;;;;;;;5044441;28;20097;-80
2022/03/08 03:13:57;;;;;;;18.63;11.93;;;;;;;;;;5060614;28;20441;-81
2022/03/08 03:16:23;;;;;;;22.83;12.15;;;;;;;;;;5044295;28;20064;-81
2022/03/08 03:18:49;;;;;;;21.33;11.82;;;;;;;;;;5061110;28;20037;-82
2022/03/08 03:21:15;;;;;;;20.33;12.32;;;;;;;;;;5060834;28;20093;-81
2022/03/08 03:23:41;;;;;;;22.55;11.95;;;;;;;;;;5065546;28;20056;-81
2022/03/08 03:26:07;;;;;;;23.08;12.00;;;;;;;;;;5061146;28;20037;-82
2022/03/08 03:28:33;;;;;;;22.23;12.20;;;;;;;;;;5045007;28;20033;-81
2022/03/08 03:30:59;;;;;;;20.10;12.32;;;;;;;;;;5061933;28;20444;-82
2022/03/08 03:33:25;;;;;;;24.48;12.30;;;;;;;;;;5065625;28;20053;-80
2022/03/08 03:35:51;;;;;;;22.58;12.43;;;;;;;;;;5067254;28;20041;-80
2022/03/08 03:38:17;;;;;;;19.38;11.77;;;;;;;;;;5069030;28;20339;-81
2022/03/08 03:40:43;;;;;;;21.08;12.77;;;;;;;;;;5079217;28;20037;-80
2022/03/08 03:43:09;;;;;;;24.40;12.60;;;;;;;;;;5081178;28;20032;-78
2022/03/08 03:45:35;;;;;;;20.63;11.77;;;;;;;;;;5080808;28;20025;-79
2022/03/08 03:48:01;;;;;;;21.67;12.40;;;;;;;;;;5062088;28;20040;-80
2022/03/08 03:50:27;;;;;;;23.77;12.80;;;;;;;;;;5047714;28;20471;-82
2022/03/08 03:52:53;;;;;;;25.83;12.85;;;;;;;;;;5063820;28;20033;-81
2022/03/08 03:55:20;;;;;;;22.30;12.45;;;;;;;;;;5061931;28;20048;-80
2022/03/08 03:57:46;;;;;;;21.50;12.13;;;;;;;;;;5047636;28;20036;-82
2022/03/08 04:00:12;;;;;;;23.98;12.05;;;;;;;;;;5049303;28;20368;-81
2022/03/08 04:02:39;;;;;;;22.23;13.23;;;;;;;;;;5062872;28;20041;-82
2022/03/08 04:05:05;;;;;;;25.13;13.18;;;;;;;;;;5063897;28;20352;-80
2022/03/08 04:07:31;;;;;;;26.35;13.55;;;;;;;;;;5064752;28;20041;-82
2022/03/08 04:09:57;;;;;;;21.95;12.65;;;;;;;;;;5069973;28;20061;-79
2022/03/08 04:12:23;;;;;;;22.15;13.15;;;;;;;;;;5069195;28;20047;-79
2022/03/08 04:14:49;;;;;;;22.35;13.43;;;;;;;;;;5067771;28;20067;-81
2022/03/08 04:17:15;;;;;;;24.58;13.60;;;;;;;;;;5051159;28;20041;-81
2022/03/08 04:19:42;;;;;;;24.60;13.82;;;;;;;;;;5064101;28;20086;-82
2022/03/08 04:22:08;;;;;;;24.58;13.63;;;;;;;;;;5063579;28;20045;-80
2022/03/08 04:24:34;;;;;;;23.80;14.27;;;;;;;;;;5064874;28;20053;-81
2022/03/08 04:27:00;;;;;;;26.40;15.43;;;;;;;;;;5053813;28;20037;-78
2022/03/08 04:29:26;;;;;;;27.15;16.48;;;;;;;;;;5070151;28;20041;-79
2022/03/08 04:31:52;;;;;;;26.92;13.88;;;;;;;;;;5054632;28;20044;-79
2022/03/08 04:34:18;;;;;;;39.85;18.63;;;;;;;;;;5071459;28;20123;-79
2022/03/08 04:36:44;;;;;;;36.60;20.17;;;;;;;;;;5054060;28;20048;-80
2022/03/08 04:39:10;;;;;;;38.30;19.10;;;;;;;;;;5069901;28;20071;-80
2022/03/08 04:41:36;;;;;;;40.47;19.17;;;;;;;;;;5051540;28;20032;-80
2022/03/08 04:44:02;;;;;;;39.28;19.02;;;;;;;;;;5068132;28;20527;-81
2022/03/08 04:46:28;;;;;;;29.75;16.17;;;;;;;;;;5050648;28;20109;-80
2022/03/08 04:48:55;;;;;;;42.80;20.88;;;;;;;;;;5067894;28;20045;-80
2022/03/08 04:51:21;;;;;;;30.40;15.98;;;;;;;;;;5046976;28;20059;-78
2022/03/08 04:53:47;;;;;;;33.78;16.30;;;;;;;;;;5068988;28;20045;-79
2022/03/08 04:56:13;;;;;;;27.65;15.02;;;;;;;;;;5067014;28;20037;-79
2022/03/08 04:58:39;;;;;;;26.92;14.65;;;;;;;;;;5049825;28;20052;-80
2022/03/08 05:01:05;;;;;;;27.95;15.70;;;;;;;;;;5064223;28;20048;-78
2022/03/08 05:03:31;;;;;;;25.52;14.27;;;;;;;;;;5043305;28;20044;-77
2022/03/08 05:05:56;;;;;;;26.17;13.55;;;;;;;;;;5057654;28;20029;-78
2022/03/08 05:08:22;;;;;;;25.52;14.32;;;;;;;;;;5056791;28;20037;-78
2022/03/08 05:10:48;;;;;;;24.08;13.93;;;;;;;;;;5056344;28;20033;-78
2022/03/08 05:13:14;;;;;;;21.92;13.35;;;;;;;;;;5058725;28;20435;-80
2022/03/08 05:15:40;;;;;;;28.65;14.00;;;;;;;;;;5063125;28;20510;-82
2022/03/08 05:18:06;;;;;;;22.23;13.32;;;;;;;;;;5063019;28;20040;-81
2022/03/08 05:20:32;;;;;;;23.90;12.88;;;;;;;;;;5062298;28;20040;-81
2022/03/08 05:23:00;;;;;;;23.95;13.50;;;;;;;;;;5045836;28;20037;-82
2022/03/08 05:25:27;;;;;;;26.02;14.05;;;;;;;;;;5045513;28;20106;-82
2022/03/08 05:27:53;;;;;;;25.80;13.20;;;;;;;;;;5046121;28;20036;-81
2022/03/08 05:30:19;;;;;;;23.73;13.43;;;;;;;;;;5068432;28;20057;-81
2022/03/08 05:32:45;;;;;;;26.10;13.25;;;;;;;;;;5046979;28;20056;-81
2022/03/08 05:35:11;;;;;;;26.33;13.60;;;;;;;;;;5063837;28;20045;-81
2022/03/08 05:37:37;;;;;;;23.88;12.35;;;;;;;;;;5062019;28;20040;-82
2022/03/08 05:40:06;;;;;;;27.13;13.20;;;;;;;;;;5044839;28;20490;-83
2022/03/08 05:42:32;;;;;;;26.15;14.02;;;;;;;;;;5060813;28;20033;-81
2022/03/08 05:44:58;;;;;;;24.38;15.13;;;;;;;;;;5044476;28;20044;-83
2022/03/08 05:47:25;;;;;;;30.40;16.83;;;;;;;;;;5045426;28;20099;-82
2022/03/08 05:49:51;;;;;;;34.28;17.17;;;;;;;;;;5044937;28;20045;-83
2022/03/08 05:52:18;;;;;;;56.90;26.08;;;;;;;;;;5046671;28;20120;-83
2022/03/08 05:54:44;;;;;;;54.50;24.85;;;;;;;;;;5045609;28;20036;-83
2022/03/08 05:57:11;;;;;;;38.20;19.70;;;;;;;;;;5060803;28;20041;-82
2022/03/08 05:59:37;;;;;;;23.75;14.13;;;;;;;;;;5044537;28;20098;-82
2022/03/08 06:02:03;;;;;;;25.85;14.77;;;;;;;;;;5060325;28;20033;-84
2022/03/08 06:04:30;;;;;;;29.65;16.88;;;;;;;;;;5065020;28;20041;-81
2022/03/08 06:06:56;;;;;;;30.33;16.67;;;;;;;;;;5063133;28;20021;-83
2022/03/08 06:09:22;;;;;;;39.92;21.23;;;;;;;;;;5046551;28;20040;-83
2022/03/08 06:11:48;;;;;;;55.75;29.30;;;;;;;;;;5045259;28;20033;-81
2022/03/08 06:14:14;;;;;;;32.97;17.48;;;;;;;;;;5062475;28;20041;-80
2022/03/08 06:16:40;;;;;;;32.42;16.25;;;;;;;;;;5057567;28;20059;-81
2022/03/08 06:19:06;;;;;;;31.75;16.10;;;;;;;;;;5076205;28;20088;-83
2022/03/08 06:21:32;;;;;;;30.58;16.75;;;;;;;;;;5048999;28;20051;-82
2022/03/08 06:23:58;;;;;;;30.60;17.67;;;;;;;;;;5044056;28;20051;-83
2022/03/08 06:26:24;;;;;;;31.33;16.42;;;;;;;;;;5044068;28;20064;-83
2022/03/08 06:28:50;;;;;;;25.05;15.38;;;;;;;;;;5061092;28;20037;-82
2022/03/08 06:31:16;;;;;;;33.47;15.85;;;;;;;;;;5069247;28;20052;-81
2022/03/08 06:33:42;;;;;;;31.83;15.85;;;;;;;;;;5070531;28;20053;-82
2022/03/08 06:36:08;;;;;;;28.02;13.90;;;;;;;;;;5070865;28;20060;-82
2022/03/08 06:38:34;;;;;;;27.80;15.48;;;;;;;;;;5044348;28;20049;-81
2022/03/08 06:41:00;;;;;;;27.17;14.13;;;;;;;;;;5044967;28;20040;-82
2022/03/08 06:43:26;;;;;;;25.42;14.07;;;;;;;;;;5060872;28;20356;-82
2022/03/08 06:46:00;;;;;;;28.33;13.60;;;;;;;;;;5047017;28;20020;-84
2022/03/08 06:48:26;;;;;;;26.60;13.60;;;;;;;;;;5063334;28;20387;-82
2022/03/08 06:50:52;;;;;;;27.02;14.13;;;;;;;;;;5043051;28;20129;-82
2022/03/08 06:53:18;;;;;;;25.77;13.77;;;;;;;;;;5060991;28;20116;-79
2022/03/08 06:55:44;;;;;;;23.27;13.32;;;;;;;;;;5062152;28;20151;-78
2022/03/08 06:58:10;;;;;;;27.08;14.25;;;;;;;;;;5062392;28;20123;-79
2022/03/08 07:00:36;;;;;;;32.53;17.50;;;;;;;;;;5073095;28;20037;-81
2022/03/08 07:03:02;;;;;;;27.83;15.05;;;;;;;;;;5052302;28;20033;-81
2022/03/08 07:05:28;;;;;;;25.23;13.68;;;;;;;;;;5067157;28;20036;-82
2022/03/08 07:07:56;;;;;;;27.98;12.93;;;;;;;;;;5049463;28;20041;-81
2022/03/08 07:10:22;;;;;;;26.88;13.73;;;;;;;;;;5046138;28;20052;-82
2022/03/08 07:12:48;;;;;;;27.83;14.90;;;;;;;;;;5063755;28;20045;-82
2022/03/08 07:15:14;;;;;;;31.67;14.93;;;;;;;;;;5065093;28;20048;-82
2022/03/08 07:17:44;;;;;;;24.77;13.90;;;;;;;;;;5063950;28;20087;-82
2022/03/08 07:20:10;;;;;;;28.52;15.23;;;;;;;;;;5064414;28;20124;-82
2022/03/08 07:22:36;;;;;;;29.52;13.70;;;;;;;;;;5065701;28;20037;-81
2022/03/08 07:25:03;;;;;;;27.65;13.45;;;;;;;;;;5064961;28;20048;-81
2022/03/08 07:27:29;;;;;;;20.73;13.30;;;;;;;;;;5047623;28;20060;-81
2022/03/08 07:29:55;;;;;;;24.40;12.85;;;;;;;;;;5064719;28;20041;-81
2022/03/08 07:32:21;;;;;;;25.48;13.07;;;;;;;;;;5049203;28;20049;-80
2022/03/08 07:34:47;;;;;;;22.45;12.05;;;;;;;;;;5054053;28;20045;-80
2022/03/08 07:37:13;;;;;;;23.38;13.38;;;;;;;;;;5050198;28;20087;-81
2022/03/08 07:39:39;;;;;;;23.02;12.75;;;;;;;;;;5049028;28;20063;-80
2022/03/08 07:42:05;;;;;;;24.48;13.23;;;;;;;;;;5052668;28;20049;-80
2022/03/08 07:44:31;;;;;;;30.10;13.35;;;;;;;;;;5065224;28;20037;-82
2022/03/08 07:46:57;;;;;;;24.38;12.85;;;;;;;;;;5048108;28;20060;-81
2022/03/08 07:49:25;;;;;;;24.17;13.00;;;;;;;;;;5063886;28;20032;-81
2022/03/08 07:51:51;;;;;;;24.83;12.82;;;;;;;;;;5063169;28;20041;-80
2022/03/08 07:54:17;;;;;;;24.63;12.85;;;;;;;;;;5045161;28;20103;-81
2022/03/08 07:56:43;;;;;;;21.58;12.70;;;;;;;;;;5060206;28;20045;-81
2022/03/08 07:59:09;;;;;;;23.42;12.32;;;;;;;;;;5060335;28;20041;-81
2022/03/08 08:01:35;;;;;;;19.90;12.18;;;;;;;;;;5061382;28;20048;-81
2022/03/08 08:04:01;;;;;;;22.77;12.18;;;;;;;;;;5060596;28;20055;-81
2022/03/08 08:06:27;;;;;;;22.13;12.55;;;;;;;;;;5061394;28;20048;-81
2022/03/08 08:08:53;;;;;;;20.45;11.93;;;;;;;;;;5061094;28;20428;-81
2022/03/08 08:11:20;;;;;;;24.98;12.05;;;;;;;;;;5050454;28;20053;-82
2022/03/08 08:13:48;;;;;;;23.45;12.07;;;;;;;;;;5055847;28;20037;-81
2022/03/08 08:16:14;;;;;;;21.67;11.75;;;;;;;;;;5067730;28;20072;-81
2022/03/08 08:18:40;;;;;;;21.95;11.40;;;;;;;;;;5067573;28;20033;-81
2022/03/08 08:21:06;;;;;;;22.02;11.55;;;;;;;;;;5066279;28;20045;-82
2022/03/08 08:23:33;;;;;;;20.83;11.35;;;;;;;;;;5050509;28;20108;-81
2022/03/08 08:25:59;;;;;;;19.88;11.43;;;;;;;;;;5066575;28;20037;-81
2022/03/08 08:28:25;;;;;;;18.10;10.93;;;;;;;;;;5049176;28;20044;-81
2022/03/08 08:30:51;;;;;;;20.10;11.27;;;;;;;;;;5064096;28;20048;-81
2022/03/08 08:33:18;;;;;;;20.15;10.93;;;;;;;;;;5047164;28;20060;-82
2022/03/08 08:35:44;;;;;;;21.17;11.20;;;;;;;;;;5047116;28;20041;-82
2022/03/08 08:38:10;;;;;;;17.70;10.23;;;;;;;;;;5047361;28;20045;-82
2022/03/08 08:40:36;;;;;;;20.25;11.15;;;;;;;;;;5064320;28;20372;-82
2022/03/08 08:43:03;;;;;;;16.48;10.25;;;;;;;;;;5046863;28;20041;-82
2022/03/08 08:45:30;;;;;;;21.50;10.38;;;;;;;;;;5046702;28;20037;-81
2022/03/08 08:47:56;;;;;;;17.70;10.30;;;;;;;;;;5046262;28;20058;-80
2022/03/08 08:50:22;;;;;;;17.17;10.10;;;;;;;;;;5045684;28;20047;-80
2022/03/08 08:52:48;;;;;;;19.55;9.30;;;;;;;;;;5062940;28;20041;-80
2022/03/08 08:55:14;;;;;;;12.48;8.43;;;;;;;;;;5046818;28;20059;-80
2022/03/08 08:57:40;;;;;;;14.48;8.13;;;;;;;;;;5063930;28;20040;-80
2022/03/08 09:00:07;;;;;;;13.68;8.38;;;;;;;;;;5062298;28;20068;-80
2022/03/08 09:02:33;;;;;;;15.50;7.50;;;;;;;;;;5045630;28;20476;-80
2022/03/08 09:04:59;;;;;;;10.90;7.00;;;;;;;;;;5045686;28;20033;-81
2022/03/08 09:07:25;;;;;;;10.93;7.13;;;;;;;;;;5061785;28;20372;-80
2022/03/08 09:09:51;;;;;;;11.45;7.70;;;;;;;;;;5045417;28;20075;-80
2022/03/08 09:12:17;;;;;;;12.73;6.90;;;;;;;;;;5046183;28;20041;-80
2022/03/08 09:14:43;;;;;;;15.82;6.57;;;;;;;;;;5062115;28;20118;-81
2022/03/08 09:17:09;;;;;;;11.10;7.03;;;;;;;;;;5061486;28;20049;-80
2022/03/08 09:19:36;;;;;;;13.57;6.93;;;;;;;;;;5061134;28;20056;-81
2022/03/08 09:22:02;;;;;;;9.27;6.40;;;;;;;;;;5045613;28;20037;-81
2022/03/08 09:24:28;;;;;;;10.68;6.10;;;;;;;;;;5045176;28;20044;-80
2022/03/08 09:26:54;;;;;;;13.60;6.75;;;;;;;;;;5045214;28;20047;-80
2022/03/08 09:29:20;;;;;;;12.60;6.50;;;;;;;;;;5064615;28;20043;-79
2022/03/08 09:31:46;;;;;;;12.48;6.53;;;;;;;;;;5061743;28;20119;-82
2022/03/08 09:34:12;;;;;;;10.85;6.75;;;;;;;;;;5078852;28;20044;-79
2022/03/08 09:36:38;;;;;;;9.88;6.43;;;;;;;;;;5079281;28;20017;-81
2022/03/08 09:39:05;;;;;;;11.60;6.32;;;;;;;;;;5061325;28;20045;-80
2022/03/08 09:41:31;;;;;;;11.50;6.35;;;;;;;;;;5058348;28;20124;-80
2022/03/08 09:43:57;;;;;;;12.70;6.53;;;;;;;;;;5059079;28;20052;-80
2022/03/08 09:46:23;;;;;;;11.55;6.47;;;;;;;;;;5042248;28;20448;-80
2022/03/08 09:48:49;;;;;;;10.25;7.00;;;;;;;;;;5059776;28;20033;-80
2022/03/08 09:51:16;;;;;;;13.90;7.40;;;;;;;;;;5043267;28;20041;-79
2022/03/08 09:53:42;;;;;;;23.55;12.30;;;;;;;;;;5063094;28;20108;-82
2022/03/08 09:56:08;;;;;;;17.48;9.18;;;;;;;;;;5060627;28;20051;-79
2022/03/08 09:58:35;;;;;;;13.85;6.20;;;;;;;;;;5062548;28;20056;-80
2022/03/08 10:01:01;;;;;;;15.27;8.88;;;;;;;;;;5044479;28;20066;-80
2022/03/08 10:03:31;;;;;;;26.02;14.00;;;;;;;;;;5060608;28;20044;-80
2022/03/08 10:05:57;;;;;;;11.70;6.53;;;;;;;;;;5044257;28;20072;-79
2022/03/08 10:08:23;;;;;;;11.65;6.80;;;;;;;;;;5043252;28;20427;-80
2022/03/08 10:10:50;;;;;;;11.63;7.22;;;;;;;;;;5042812;28;20044;-79
2022/03/08 10:13:18;;;;;;;12.45;7.47;;;;;;;;;;5043081;28;20044;-80
2022/03/08 10:15:44;;;;;;;10.65;6.07;;;;;;;;;;5059174;28;20041;-80
2022/03/08 10:18:10;;;;;;;10.27;6.30;;;;;;;;;;5068372;28;20048;-78
2022/03/08 10:20:36;;;;;;;15.95;8.38;;;;;;;;;;5072062;28;20049;-79
2022/03/08 10:23:02;;;;;;;11.60;6.60;;;;;;;;;;5067598;28;20051;-80
2022/03/08 10:25:29;;;;;;;11.70;6.72;;;;;;;;;;5049535;28;20096;-78
2022/03/08 10:27:55;;;;;;;8.85;5.63;;;;;;;;;;5053566;28;20052;-80
2022/03/08 10:30:25;;;;;;;11.55;6.18;;;;;;;;;;5061627;28;20037;-80
2022/03/08 10:32:53;;;;;;;11.52;7.72;;;;;;;;;;5060409;28;20076;-81
2022/03/08 10:35:22;;;;;;;10.25;5.90;;;;;;;;;;5065668;28;20116;-80
2022/03/08 10:37:48;;;;;;;9.32;5.85;;;;;;;;;;5056594;28;20045;-80
2022/03/08 10:40:15;;;;;;;15.38;7.50;;;;;;;;;;5074573;28;20056;-79
2022/03/08 10:42:41;;;;;;;8.35;5.40;;;;;;;;;;5056970;28;20037;-79
2022/03/08 10:45:08;;;;;;;12.38;5.65;;;;;;;;;;5070222;28;20037;-79
2022/03/08 10:47:38;;;;;;;8.07;5.03;;;;;;;;;;5061474;28;20079;-80
2022/03/08 10:50:04;;;;;;;9.95;5.28;;;;;;;;;;5047396;28;20138;-79
2022/03/08 10:52:31;;;;;;;9.55;5.30;;;;;;;;;;5046168;28;20048;-79
2022/03/08 10:55:13;;;;;;;10.07;5.20;;;;;;;;;;5045954;28;20120;-80
2022/03/08 10:57:43;;;;;;;10.32;5.25;;;;;;;;;;5065230;28;20071;-79
2022/03/08 11:00:12;;;;;;;8.55;5.10;;;;;;;;;;5048504;28;20479;-80
2022/03/08 11:02:55;;;;;;;10.27;5.10;;;;;;;;;;5048898;28;20068;-78
2022/03/08 11:05:21;;;;;;;10.27;5.38;;;;;;;;;;5048037;28;20033;-79
2022/03/08 11:07:47;;;;;;;8.85;5.00;;;;;;;;;;5063624;28;20445;-79
2022/03/08 11:10:14;;;;;;;8.55;4.95;;;;;;;;;;5070372;28;20341;-78
2022/03/08 11:12:40;;;;;;;7.22;4.70;;;;;;;;;;5049952;28;20106;-78
2022/03/08 11:15:06;;;;;;;7.53;4.70;;;;;;;;;;5049690;28;20045;-78
2022/03/08 11:17:36;;;;;;;9.43;4.75;;;;;;;;;;5049783;28;20044;-78
2022/03/08 11:20:07;;;;;;;8.68;4.95;;;;;;;;;;5047868;28;20068;-79
2022/03/08 11:22:33;;;;;;;8.05;4.32;;;;;;;;;;5047921;28;20044;-79
2022/03/08 11:24:59;;;;;;;7.97;4.93;;;;;;;;;;5065929;28;20116;-79
2022/03/08 11:27:25;;;;;;;9.18;4.75;;;;;;;;;;5051003;28;20048;-78
2022/03/08 11:29:51;;;;;;;8.60;4.70;;;;;;;;;;5066539;28;20069;-78
2022/03/08 11:32:18;;;;;;;9.30;4.97;;;;;;;;;;5066641;28;20075;-78
2022/03/08 11:35:05;;;;;;;8.75;4.68;;;;;;;;;;5050830;28;20041;-78
2022/03/08 11:37:31;;;;;;;9.68;4.88;;;;;;;;;;5058148;28;20041;-79
2022/03/08 11:40:23;;;;;;;6.70;4.00;;;;;;;;;;5065455;28;20037;-79
2022/03/08 11:42:51;;;;;;;8.02;4.60;;;;;;;;;;5062591;28;20059;-79
2022/03/08 11:45:18;;;;;;;7.35;4.22;;;;;;;;;;5045359;28;20043;-80
2022/03/08 11:47:45;;;;;;;6.85;3.70;;;;;;;;;;5059476;28;20426;-80
2022/03/08 11:50:25;;;;;;;8.18;4.30;;;;;;;;;;5043022;28;20040;-80
2022/03/08 11:53:11;;;;;;;6.80;4.60;;;;;;;;;;5046887;28;20056;-80
2022/03/08 11:55:43;;;;;;;8.43;4.60;;;;;;;;;;5059395;28;20060;-79
2022/03/08 11:58:10;;;;;;;7.78;4.60;;;;;;;;;;5060679;28;20041;-79
2022/03/08 12:00:54;;;;;;;8.80;4.20;;;;;;;;;;5058879;28;20521;-79
2022/03/08 12:03:23;;;;;;;10.10;5.50;;;;;;;;;;5059084;28;20036;-78
2022/03/08 12:05:59;;;;;;;9.52;4.07;;;;;;;;;;5060710;28;20032;-79
2022/03/08 12:08:25;;;;;;;8.77;3.65;;;;;;;;;;5058935;28;20045;-79
2022/03/08 12:10:58;;;;;;;8.93;4.30;;;;;;;;;;5060164;28;20043;-79
2022/03/08 12:13:24;;;;;;;9.13;3.88;;;;;;;;;;5059929;28;20044;-79
2022/03/08 12:16:09;;;;;;;7.68;4.00;;;;;;;;;;5042498;28;20041;-79
2022/03/08 12:18:41;;;;;;;6.82;4.22;;;;;;;;;;5060096;28;20116;-80
2022/03/08 12:21:30;;;;;;;6.82;3.65;;;;;;;;;;5062542;28;20089;-80
2022/03/08 12:23:57;;;;;;;7.72;4.68;;;;;;;;;;5050637;28;20426;-80
2022/03/08 12:26:33;;;;;;;8.38;4.43;;;;;;;;;;5044489;28;20056;-80
2022/03/08 12:29:15;;;;;;;7.63;4.15;;;;;;;;;;5044037;28;20037;-80
2022/03/08 12:31:57;;;;;;;6.38;4.28;;;;;;;;;;5059612;28;20041;-79
2022/03/08 12:34:46;;;;;;;6.10;4.03;;;;;;;;;;5060298;28;20195;-79
2022/03/08 12:37:19;;;;;;;7.38;4.32;;;;;;;;;;5060094;28;20045;-79
2022/03/08 12:39:45;;;;;;;;;;;;;;;;;;5059881;28;20490;-78
2022/03/08 12:42:17;;;;;;;10.98;4.70;;;;;;;;;;5060085;28;19909;-79
2022/03/08 12:44:53;;;;;;;7.63;4.15;;;;;;;;;;5061839;28;20039;-80
2022/03/08 12:47:19;;;;;;;8.05;4.28;;;;;;;;;;5067927;28;20045;-79
2022/03/08 12:49:46;;;;;;;6.18;3.83;;;;;;;;;;5063032;28;20036;-78
2022/03/08 12:52:13;;;;;;;6.60;3.95;;;;;;;;;;5061124;28;20056;-80
2022/03/08 12:54:39;;;;;;;10.73;4.70;;;;;;;;;;5061125;28;20037;-80
2022/03/08 12:57:05;;;;;;;7.95;4.75;;;;;;;;;;5060444;28;20187;-81
2022/03/08 12:59:31;;;;;;;6.00;4.00;;;;;;;;;;5060965;28;20025;-80
2022/03/08 13:02:07;;;;;;;6.50;4.03;;;;;;;;;;5062025;28;20033;-81
2022/03/08 13:04:33;;;;;;;8.40;4.35;;;;;;;;;;5061760;28;20037;-80
2022/03/08 13:07:06;;;;;;;6.55;4.03;;;;;;;;;;5047720;28;20045;-79
2022/03/08 13:09:51;;;;;;;9.07;4.38;;;;;;;;;;5061697;28;20041;-81
2022/03/08 13:12:20;;;;;;;7.35;3.80;;;;;;;;;;5045575;28;20033;-79
2022/03/08 13:15:26;;;;;;;9.82;4.10;;;;;;;;;;5061412;28;20032;-79
2022/03/08 13:17:53;;;;;;;8.57;4.50;;;;;;;;;;4964923;28;20415;-79
2022/03/08 13:20:23;;;;;;;7.95;4.65;;;;;;;;;;4981203;28;20121;-81
2022/03/08 13:22:49;;;;;;;7.75;4.65;;;;;;;;;;4996911;28;20072;-82
2022/03/08 13:25:15;;;;;;;7.03;4.10;;;;;;;;;;5070473;28;20029;-81
2022/03/08 13:28:01;;;;;;;7.60;4.22;;;;;;;;;;5063294;28;20041;-79
2022/03/08 13:30:28;;;;;;;9.05;4.70;;;;;;;;;;5064739;28;20041;-81
2022/03/08 13:33:10;;;;;;;7.55;5.13;;;;;;;;;;5045594;28;20068;-79
2022/03/08 13:35:36;;;;;;;9.27;4.38;;;;;;;;;;5061607;28;20088;-80
2022/03/08 13:38:02;;;;;;;8.30;4.18;;;;;;;;;;5045721;28;20041;-81
2022/03/08 13:40:31;;;;;;;6.68;3.97;;;;;;;;;;5076565;28;20045;-82
2022/03/08 13:42:57;;;;;;;9.40;4.03;;;;;;;;;;5058740;28;20056;-82
2022/03/08 13:45:23;;;;;;;6.32;4.05;;;;;;;;;;5070975;28;20044;-82
2022/03/08 13:47:52;;;;;;;6.22;4.10;;;;;;;;;;5066140;28;20048;-82
2022/03/08 13:50:19;;;;;;;7.75;4.32;;;;;;;;;;5061697;28;20041;-80
2022/03/08 13:52:49;;;;;;;7.07;4.30;;;;;;;;;;5044271;28;20059;-79
2022/03/08 13:55:15;;;;;;;8.35;4.65;;;;;;;;;;5044499;28;20044;-81
2022/03/08 13:57:54;;;;;;;7.95;4.45;;;;;;;;;;5043964;28;20037;-81
2022/03/08 14:00:20;;;;;;;8.35;4.22;;;;;;;;;;5060413;28;20052;-80
2022/03/08 14:02:47;;;;;;;7.70;4.40;;;;;;;;;;5060191;28;20037;-80
2022/03/08 14:05:13;;;;;;;8.00;4.65;;;;;;;;;;5061731;28;20037;-81
2022/03/08 14:07:39;;;;;;;9.95;4.80;;;;;;;;;;5060509;28;20067;-82
2022/03/08 14:10:05;;;;;;;7.07;4.50;;;;;;;;;;5045657;28;20092;-79
2022/03/08 14:12:42;;;;;;;9.07;4.80;;;;;;;;;;5050662;28;20070;-80
2022/03/08 14:15:08;;;;;;;6.97;4.38;;;;;;;;;;5063988;28;20124;-80
2022/03/08 14:17:34;;;;;;;9.60;5.10;;;;;;;;;;5046006;28;20060;-80
2022/03/08 14:20:00;;;;;;;8.85;5.10;;;;;;;;;;5043225;28;20841;-81
2022/03/08 14:22:26;;;;;;;6.82;4.80;;;;;;;;;;5042647;28;20112;-81
2022/03/08 14:24:59;;;;;;;7.53;4.63;;;;;;;;;;5060557;28;20041;-81
2022/03/08 14:27:25;;;;;;;7.82;4.85;;;;;;;;;;5061618;28;20044;-81